map of SCO home
SCO - Airport
Location
City:  Aktau, Mangghystaü, Kazakhstan
Near (Alt.):Akshukyr
Name:Aktau International Airport
Old (Alt.):Shevchenko-Central
ICAO:UATE
IATA:SCO

Details
Type:Airport (Aerodrome, Airfield)
Use:Public/Civil, International (customs port of entry)
Latitude:43°51'36"N (43.860000)
Longitude:51°05'27"E (51.090833)
Elevation:75 ft (23 m)
Variation:7.60°E (WMM2015v2 magnetic declination)
0.08° annual change
Runways:1
Longest:10013 × 148 ft (3052 × 45 m), paved

Time
Time Zone:UTC+5
Local Time:

Weather
METAR:UATE 041400Z 01003MPS 9999 BKN012 M01/M02 Q1034 R30/0///70 NOSIG RMK QFE774/1032
TAF:UATE 041101Z 0412/0512 VRB02MPS 9999 BKN020 TX04/0510Z TNM03/0502Z
TEMPO 0415/0506 BKN007

Related Locations
Nearby:
Farthest:GMR: 10959 mi / 17636 km
Mangareva [Totegegie], Gambier Islands, PF

Find:

   beyond  
but within

Other Information
Maps:
NOTAMs:
Links:
Sources:

  
  • flag of Kazakhstan
  

Sectional Chart

Flight Planning
at skyvector.com

Satellite Image

Google Maps Satellite view

 

Copyright © 2004-2019 Karl L. Swartz. All rights reserved.
The Great Circle Mapper name and logo are trademarks of the Great Circle Mapper.
All other trademarks mentioned herein belong to their respective owners.
Please see credits for attibutions and further copyright information.

  Follow gcmap on Facebook Follow gcmap on Twitter GCmap on LinkedIn

hCard Microformat

Geo Microformat